sensor_id;sensor_type;location;lat;lon;timestamp;pressure;altitude;pressure_sealevel;temperature;humidity
28456;BME280;15682;56.742;38.866;2023-03-14T00:01:54;99300.0;;;-7.2;92.0
28456;BME280;15682;56.742;38.866;2023-03-14T00:03:54;99300.0;;;-7.2;92.3
28456;BME280;15682;56.742;38.866;2023-03-14T00:05:54;99300.0;;;-7.2;92.3
28456;BME280;15682;56.742;38.866;2023-03-14T00:07:53;99290.0;;;-7.2;92.3
28456;BME280;15682;56.742;38.866;2023-03-14T00:09:53;99290.0;;;-7.2;92.3
28456;BME280;15682;56.742;38.866;2023-03-14T00:11:53;99290.0;;;-7.2;92.2
28456;BME280;15682;56.742;38.866;2023-03-14T00:13:53;99290.0;;;-7.2;92.2
28456;BME280;15682;56.742;38.866;2023-03-14T00:15:52;99290.0;;;-7.2;92.2
28456;BME280;15682;56.742;38.866;2023-03-14T00:17:52;99280.0;;;-7.3;92.2
28456;BME280;15682;56.742;38.866;2023-03-14T00:19:52;99260.0;;;-7.2;92.2
28456;BME280;15682;56.742;38.866;2023-03-14T00:21:52;99260.0;;;-7.3;92.4
28456;BME280;15682;56.742;38.866;2023-03-14T00:23:51;99260.0;;;-7.3;92.4
28456;BME280;15682;56.742;38.866;2023-03-14T00:25:51;99260.0;;;-7.2;92.4
28456;BME280;15682;56.742;38.866;2023-03-14T00:27:51;99260.0;;;-7.2;92.4
28456;BME280;15682;56.742;38.866;2023-03-14T00:29:50;99260.0;;;-7.3;92.4
28456;BME280;15682;56.742;38.866;2023-03-14T00:31:50;99260.0;;;-7.1;92.5
28456;BME280;15682;56.742;38.866;2023-03-14T00:33:52;99240.0;;;-7.1;92.5
28456;BME280;15682;56.742;38.866;2023-03-14T00:35:54;99240.0;;;-7.3;92.5
28456;BME280;15682;56.742;38.866;2023-03-14T00:37:49;99240.0;;;-7.3;92.5
28456;BME280;15682;56.742;38.866;2023-03-14T00:39:51;99240.0;;;-7.3;92.5
28456;BME280;15682;56.742;38.866;2023-03-14T00:41:49;99240.0;;;-7.2;92.3
28456;BME280;15682;56.742;38.866;2023-03-14T00:43:49;99230.0;;;-7.2;92.3
28456;BME280;15682;56.742;38.866;2023-03-14T00:45:49;99230.0;;;-7.2;92.3
28456;BME280;15682;56.742;38.866;2023-03-14T00:47:48;99230.0;;;-7.1;92.3
28456;BME280;15682;56.742;38.866;2023-03-14T00:49:48;99230.0;;;-7.1;92.3
28456;BME280;15682;56.742;38.866;2023-03-14T00:51:48;99220.0;;;-7.2;92.2
28456;BME280;15682;56.742;38.866;2023-03-14T00:53:47;99220.0;;;-7.2;92.2
28456;BME280;15682;56.742;38.866;2023-03-14T00:55:47;99220.0;;;-7.2;92.2
28456;BME280;15682;56.742;38.866;2023-03-14T00:57:47;99220.0;;;-7.2;92.2
28456;BME280;15682;56.742;38.866;2023-03-14T00:59:47;99220.0;;;-7.2;92.2
28456;BME280;15682;56.742;38.866;2023-03-14T01:01:46;99210.0;;;-7.2;92.0
28456;BME280;15682;56.742;38.866;2023-03-14T01:03:47;99210.0;;;-7.2;92.0
28456;BME280;15682;56.742;38.866;2023-03-14T01:05:46;99210.0;;;-7.2;91.8
28456;BME280;15682;56.742;38.866;2023-03-14T01:07:45;99210.0;;;-7.2;91.8
28456;BME280;15682;56.742;38.866;2023-03-14T01:09:45;99210.0;;;-7.2;91.8
28456;BME280;15682;56.742;38.866;2023-03-14T01:11:45;99210.0;;;-7.1;91.6
28456;BME280;15682;56.742;38.866;2023-03-14T01:13:45;99210.0;;;-7.1;91.6
28456;BME280;15682;56.742;38.866;2023-03-14T01:15:44;99210.0;;;-7.1;91.6
28456;BME280;15682;56.742;38.866;2023-03-14T01:17:44;99210.0;;;-7.2;91.6
28456;BME280;15682;56.742;38.866;2023-03-14T01:19:44;99210.0;;;-7.2;91.6
28456;BME280;15682;56.742;38.866;2023-03-14T01:21:44;99210.0;;;-7.2;91.5
28456;BME280;15682;56.742;38.866;2023-03-14T01:23:45;99210.0;;;-7.1;91.5
28456;BME280;15682;56.742;38.866;2023-03-14T01:25:43;99210.0;;;-7.1;91.5
28456;BME280;15682;56.742;38.866;2023-03-14T01:27:43;99210.0;;;-7.0;91.5
28456;BME280;15682;56.742;38.866;2023-03-14T01:29:43;99190.0;;;-7.0;91.5
28456;BME280;15682;56.742;38.866;2023-03-14T01:31:43;99190.0;;;-7.0;91.3
28456;BME280;15682;56.742;38.866;2023-03-14T01:33:43;99180.0;;;-7.0;91.3
28456;BME280;15682;56.742;38.866;2023-03-14T01:35:42;99180.0;;;-6.9;91.3
28456;BME280;15682;56.742;38.866;2023-03-14T01:37:42;99180.0;;;-6.9;91.3
28456;BME280;15682;56.742;38.866;2023-03-14T01:39:41;99180.0;;;-6.8;91.3
28456;BME280;15682;56.742;38.866;2023-03-14T01:41:41;99180.0;;;-6.8;91.3
28456;BME280;15682;56.742;38.866;2023-03-14T01:43:41;99180.0;;;-6.8;91.1
28456;BME280;15682;56.742;38.866;2023-03-14T01:47:41;99180.0;;;-6.8;91.1
28456;BME280;15682;56.742;38.866;2023-03-14T01:49:40;99180.0;;;-6.6;90.7
28456;BME280;15682;56.742;38.866;2023-03-14T01:51:46;99180.0;;;-6.6;90.6
28456;BME280;15682;56.742;38.866;2023-03-14T01:53:41;99160.0;;;-6.6;90.6
28456;BME280;15682;56.742;38.866;2023-03-14T01:55:40;99150.0;;;-6.6;90.6
28456;BME280;15682;56.742;38.866;2023-03-14T01:57:42;99130.0;;;-6.6;90.6
28456;BME280;15682;56.742;38.866;2023-03-14T01:59:40;99120.0;;;-6.6;90.6
28456;BME280;15682;56.742;38.866;2023-03-14T02:01:42;99110.0;;;-6.4;90.6
28456;BME280;15682;56.742;38.866;2023-03-14T02:03:47;99090.0;;;-6.4;90.6
28456;BME280;15682;56.742;38.866;2023-03-14T02:05:40;99090.0;;;-6.4;90.6
28456;BME280;15682;56.742;38.866;2023-03-14T02:07:43;99090.0;;;-6.3;90.1
28456;BME280;15682;56.742;38.866;2023-03-14T02:09:39;99090.0;;;-6.1;90.1
28456;BME280;15682;56.742;38.866;2023-03-14T02:11:38;99090.0;;;-6.1;90.1
28456;BME280;15682;56.742;38.866;2023-03-14T02:13:38;99090.0;;;-6.0;89.4
28456;BME280;15682;56.742;38.866;2023-03-14T02:15:38;99090.0;;;-6.0;89.4
28456;BME280;15682;56.742;38.866;2023-03-14T02:17:38;99080.0;;;-5.8;89.4
28456;BME280;15682;56.742;38.866;2023-03-14T02:19:50;99070.0;;;-5.8;88.8
28456;BME280;15682;56.742;38.866;2023-03-14T02:21:45;99060.0;;;-5.8;88.9
28456;BME280;15682;56.742;38.866;2023-03-14T02:23:43;99060.0;;;-5.8;88.9
28456;BME280;15682;56.742;38.866;2023-03-14T02:25:43;99060.0;;;-5.8;88.9
28456;BME280;15682;56.742;38.866;2023-03-14T02:27:36;99060.0;;;-5.8;88.9
28456;BME280;15682;56.742;38.866;2023-03-14T02:29:40;99060.0;;;-5.7;88.9
28456;BME280;15682;56.742;38.866;2023-03-14T02:31:36;99060.0;;;-5.7;88.9
28456;BME280;15682;56.742;38.866;2023-03-14T02:33:37;99060.0;;;-5.7;88.6
28456;BME280;15682;56.742;38.866;2023-03-14T02:35:38;99040.0;;;-5.6;88.3
28456;BME280;15682;56.742;38.866;2023-03-14T02:37:38;99010.0;;;-5.6;88.3
28456;BME280;15682;56.742;38.866;2023-03-14T02:39:38;99010.0;;;-5.6;88.3
28456;BME280;15682;56.742;38.866;2023-03-14T02:41:34;99010.0;;;-5.6;88.3
28456;BME280;15682;56.742;38.866;2023-03-14T02:43:34;99010.0;;;-5.5;88.3
28456;BME280;15682;56.742;38.866;2023-03-14T02:45:44;99000.0;;;-5.4;87.7
28456;BME280;15682;56.742;38.866;2023-03-14T02:47:34;99000.0;;;-5.4;87.7
28456;BME280;15682;56.742;38.866;2023-03-14T02:49:33;99000.0;;;-5.3;87.7
28456;BME280;15682;56.742;38.866;2023-03-14T02:51:33;99000.0;;;-5.2;87.7
28456;BME280;15682;56.742;38.866;2023-03-14T02:53:35;98990.0;;;-5.1;87.4
28456;BME280;15682;56.742;38.866;2023-03-14T02:55:33;98980.0;;;-5.1;87.4
28456;BME280;15682;56.742;38.866;2023-03-14T02:57:32;98970.0;;;-5.1;87.4
28456;BME280;15682;56.742;38.866;2023-03-14T02:59:32;98960.0;;;-5.1;88.4
28456;BME280;15682;56.742;38.866;2023-03-14T03:01:33;98960.0;;;-5.1;88.4
28456;BME280;15682;56.742;38.866;2023-03-14T03:03:32;98960.0;;;-5.0;89.6
28456;BME280;15682;56.742;38.866;2023-03-14T03:05:32;98960.0;;;-5.0;89.6
28456;BME280;15682;56.742;38.866;2023-03-14T03:07:31;98960.0;;;-5.0;89.6
28456;BME280;15682;56.742;38.866;2023-03-14T03:09:31;98950.0;;;-5.0;90.2
28456;BME280;15682;56.742;38.866;2023-03-14T03:11:31;98930.0;;;-5.0;90.2
28456;BME280;15682;56.742;38.866;2023-03-14T03:13:31;98930.0;;;-5.0;90.8
28456;BME280;15682;56.742;38.866;2023-03-14T03:15:31;98930.0;;;-5.0;90.8
28456;BME280;15682;56.742;38.866;2023-03-14T03:17:31;98930.0;;;-5.0;91.3
28456;BME280;15682;56.742;38.866;2023-03-14T03:19:30;98930.0;;;-4.8;91.3
28456;BME280;15682;56.742;38.866;2023-03-14T03:21:30;98930.0;;;-4.9;92.1
28456;BME280;15682;56.742;38.866;2023-03-14T03:23:30;98930.0;;;-4.9;92.1
28456;BME280;15682;56.742;38.866;2023-03-14T03:25:30;98930.0;;;-4.9;92.1
28456;BME280;15682;56.742;38.866;2023-03-14T03:27:30;98930.0;;;-4.7;92.1
28456;BME280;15682;56.742;38.866;2023-03-14T03:29:29;98930.0;;;-4.7;92.7
28456;BME280;15682;56.742;38.866;2023-03-14T03:31:29;98930.0;;;-4.6;92.7
28456;BME280;15682;56.742;38.866;2023-03-14T03:33:28;98930.0;;;-4.6;92.8
28456;BME280;15682;56.742;38.866;2023-03-14T03:35:28;98930.0;;;-4.6;93.3
28456;BME280;15682;56.742;38.866;2023-03-14T03:37:30;98930.0;;;-4.6;93.3
28456;BME280;15682;56.742;38.866;2023-03-14T03:39:28;98930.0;;;-4.6;93.3
28456;BME280;15682;56.742;38.866;2023-03-14T03:41:28;98930.0;;;-4.5;93.3
28456;BME280;15682;56.742;38.866;2023-03-14T03:43:27;98930.0;;;-4.5;93.8
28456;BME280;15682;56.742;38.866;2023-03-14T03:45:27;98930.0;;;-4.5;94.4
28456;BME280;15682;56.742;38.866;2023-03-14T03:47:27;98930.0;;;-4.5;94.4
28456;BME280;15682;56.742;38.866;2023-03-14T03:49:29;98930.0;;;-4.5;94.4
28456;BME280;15682;56.742;38.866;2023-03-14T03:51:27;98930.0;;;-4.5;94.4
28456;BME280;15682;56.742;38.866;2023-03-14T03:53:27;98930.0;;;-4.5;94.5
28456;BME280;15682;56.742;38.866;2023-03-14T03:55:26;98910.0;;;-4.5;94.5
28456;BME280;15682;56.742;38.866;2023-03-14T03:57:26;98900.0;;;-4.5;94.5
28456;BME280;15682;56.742;38.866;2023-03-14T03:59:26;98880.0;;;-4.4;94.5
28456;BME280;15682;56.742;38.866;2023-03-14T04:01:26;98880.0;;;-4.4;94.5
28456;BME280;15682;56.742;38.866;2023-03-14T04:03:26;98870.0;;;-4.4;95.0
28456;BME280;15682;56.742;38.866;2023-03-14T04:05:25;98870.0;;;-4.4;95.0
28456;BME280;15682;56.742;38.866;2023-03-14T04:07:25;98860.0;;;-4.4;95.0
28456;BME280;15682;56.742;38.866;2023-03-14T04:09:25;98850.0;;;-4.4;95.5
28456;BME280;15682;56.742;38.866;2023-03-14T04:11:25;98850.0;;;-4.3;95.5
28456;BME280;15682;56.742;38.866;2023-03-14T04:13:25;98850.0;;;-4.3;95.5
28456;BME280;15682;56.742;38.866;2023-03-14T04:15:24;98850.0;;;-4.3;95.5
28456;BME280;15682;56.742;38.866;2023-03-14T04:17:24;98840.0;;;-4.1;95.5
28456;BME280;15682;56.742;38.866;2023-03-14T04:19:24;98820.0;;;-4.1;96.0
28456;BME280;15682;56.742;38.866;2023-03-14T04:21:24;98820.0;;;-4.1;96.0
28456;BME280;15682;56.742;38.866;2023-03-14T04:23:24;98820.0;;;-4.0;96.2
28456;BME280;15682;56.742;38.866;2023-03-14T04:25:23;98810.0;;;-4.0;96.2
28456;BME280;15682;56.742;38.866;2023-03-14T04:27:23;98810.0;;;-3.8;96.2
28456;BME280;15682;56.742;38.866;2023-03-14T04:29:23;98810.0;;;-3.8;96.2
28456;BME280;15682;56.742;38.866;2023-03-14T04:31:23;98810.0;;;-3.7;96.2
28456;BME280;15682;56.742;38.866;2023-03-14T04:33:23;98810.0;;;-3.6;95.7
28456;BME280;15682;56.742;38.866;2023-03-14T04:35:22;98810.0;;;-3.6;95.7
28456;BME280;15682;56.742;38.866;2023-03-14T04:37:22;98810.0;;;-3.5;95.3
28456;BME280;15682;56.742;38.866;2023-03-14T04:39:22;98810.0;;;-3.5;95.3
28456;BME280;15682;56.742;38.866;2023-03-14T04:41:22;98790.0;;;-3.4;95.3
28456;BME280;15682;56.742;38.866;2023-03-14T04:43:22;98790.0;;;-3.4;95.3
28456;BME280;15682;56.742;38.866;2023-03-14T04:45:22;98760.0;;;-3.4;95.3
28456;BME280;15682;56.742;38.866;2023-03-14T04:47:21;98760.0;;;-3.3;95.3
28456;BME280;15682;56.742;38.866;2023-03-14T04:49:21;98760.0;;;-3.3;95.3
28456;BME280;15682;56.742;38.866;2023-03-14T04:51:21;98740.0;;;-3.3;95.3
28456;BME280;15682;56.742;38.866;2023-03-14T04:53:21;98750.0;;;-3.3;95.6
28456;BME280;15682;56.742;38.866;2023-03-14T04:55:21;98730.0;;;-3.2;95.6
28456;BME280;15682;56.742;38.866;2023-03-14T04:57:21;98730.0;;;-3.2;95.6
28456;BME280;15682;56.742;38.866;2023-03-14T04:59:20;98710.0;;;-3.1;95.6
28456;BME280;15682;56.742;38.866;2023-03-14T05:01:20;98710.0;;;-3.1;95.6
28456;BME280;15682;56.742;38.866;2023-03-14T05:03:20;98710.0;;;-3.1;94.7
28456;BME280;15682;56.742;38.866;2023-03-14T05:05:20;98700.0;;;-3.1;94.7
28456;BME280;15682;56.742;38.866;2023-03-14T05:07:20;98700.0;;;-2.9;94.1
28456;BME280;15682;56.742;38.866;2023-03-14T05:09:20;98690.0;;;-2.9;94.1
28456;BME280;15682;56.742;38.866;2023-03-14T05:11:19;98690.0;;;-2.9;93.6
28456;BME280;15682;56.742;38.866;2023-03-14T05:13:19;98680.0;;;-2.8;93.6
28456;BME280;15682;56.742;38.866;2023-03-14T05:15:19;98680.0;;;-2.8;93.6
28456;BME280;15682;56.742;38.866;2023-03-14T05:17:19;98680.0;;;-2.8;93.6
28456;BME280;15682;56.742;38.866;2023-03-14T05:19:19;98680.0;;;-2.7;93.0
28456;BME280;15682;56.742;38.866;2023-03-14T05:21:19;98680.0;;;-2.6;93.0
28456;BME280;15682;56.742;38.866;2023-03-14T05:23:18;98680.0;;;-2.5;92.9
28456;BME280;15682;56.742;38.866;2023-03-14T05:25:18;98670.0;;;-2.5;92.9
28456;BME280;15682;56.742;38.866;2023-03-14T05:27:18;98670.0;;;-2.5;92.9
28456;BME280;15682;56.742;38.866;2023-03-14T05:29:18;98670.0;;;-2.4;92.9
28456;BME280;15682;56.742;38.866;2023-03-14T05:31:18;98660.0;;;-2.4;92.4
28456;BME280;15682;56.742;38.866;2023-03-14T05:33:18;98670.0;;;-2.4;92.5
28456;BME280;15682;56.742;38.866;2023-03-14T05:35:17;98660.0;;;-2.4;92.5
28456;BME280;15682;56.742;38.866;2023-03-14T05:37:17;98660.0;;;-2.2;92.5
28456;BME280;15682;56.742;38.866;2023-03-14T05:39:17;98660.0;;;-2.2;92.5
28456;BME280;15682;56.742;38.866;2023-03-14T05:41:18;98650.0;;;-2.2;92.5
28456;BME280;15682;56.742;38.866;2023-03-14T05:43:17;98650.0;;;-2.1;92.1
28456;BME280;15682;56.742;38.866;2023-03-14T05:45:17;98660.0;;;-2.0;92.1
28456;BME280;15682;56.742;38.866;2023-03-14T05:47:17;98660.0;;;-2.0;91.9
28456;BME280;15682;56.742;38.866;2023-03-14T05:49:16;98660.0;;;-2.0;91.9
28456;BME280;15682;56.742;38.866;2023-03-14T05:51:16;98680.0;;;-1.9;91.9
28456;BME280;15682;56.742;38.866;2023-03-14T05:53:16;98650.0;;;-1.9;92.0
28456;BME280;15682;56.742;38.866;2023-03-14T05:55:16;98660.0;;;-1.9;92.0
28456;BME280;15682;56.742;38.866;2023-03-14T05:57:16;98660.0;;;-1.8;92.0
28456;BME280;15682;56.742;38.866;2023-03-14T05:59:17;98660.0;;;-1.6;92.0
28456;BME280;15682;56.742;38.866;2023-03-14T06:01:16;98660.0;;;-1.6;91.2
28456;BME280;15682;56.742;38.866;2023-03-14T06:03:15;98650.0;;;-1.4;91.2
28456;BME280;15682;56.742;38.866;2023-03-14T06:05:16;98650.0;;;-1.3;91.2
28456;BME280;15682;56.742;38.866;2023-03-14T06:07:15;98650.0;;;-1.3;91.2
28456;BME280;15682;56.742;38.866;2023-03-14T06:09:15;98650.0;;;-1.3;91.2
28456;BME280;15682;56.742;38.866;2023-03-14T06:11:15;98650.0;;;-1.3;91.2
28456;BME280;15682;56.742;38.866;2023-03-14T06:13:15;98650.0;;;-1.3;91.7
28456;BME280;15682;56.742;38.866;2023-03-14T06:15:15;98650.0;;;-1.3;91.7
28456;BME280;15682;56.742;38.866;2023-03-14T06:17:15;98650.0;;;-1.3;91.7
28456;BME280;15682;56.742;38.866;2023-03-14T06:19:14;98650.0;;;-1.1;92.3
28456;BME280;15682;56.742;38.866;2023-03-14T06:21:14;98620.0;;;-1.0;92.3
28456;BME280;15682;56.742;38.866;2023-03-14T06:23:14;98620.0;;;-1.0;91.7
28456;BME280;15682;56.742;38.866;2023-03-14T06:25:14;98640.0;;;-1.0;91.7
28456;BME280;15682;56.742;38.866;2023-03-14T06:27:14;98610.0;;;-0.8;91.7
28456;BME280;15682;56.742;38.866;2023-03-14T06:29:14;98610.0;;;-0.8;91.7
28456;BME280;15682;56.742;38.866;2023-03-14T06:31:14;98620.0;;;-0.8;92.4
28456;BME280;15682;56.742;38.866;2023-03-14T06:33:13;98620.0;;;-0.7;92.8
28456;BME280;15682;56.742;38.866;2023-03-14T06:35:13;98610.0;;;-0.7;92.8
28456;BME280;15682;56.742;38.866;2023-03-14T06:37:13;98600.0;;;-0.7;92.8
28456;BME280;15682;56.742;38.866;2023-03-14T06:39:13;98600.0;;;-0.6;92.8
28456;BME280;15682;56.742;38.866;2023-03-14T06:41:13;98600.0;;;-0.6;92.8
28456;BME280;15682;56.742;38.866;2023-03-14T06:43:13;98590.0;;;-0.6;92.5
28456;BME280;15682;56.742;38.866;2023-03-14T06:45:13;98590.0;;;-0.6;92.5
28456;BME280;15682;56.742;38.866;2023-03-14T06:47:13;98590.0;;;-0.4;92.5
28456;BME280;15682;56.742;38.866;2023-03-14T06:49:12;98590.0;;;-0.4;92.5
28456;BME280;15682;56.742;38.866;2023-03-14T06:51:12;98590.0;;;-0.3;92.5
28456;BME280;15682;56.742;38.866;2023-03-14T06:53:12;98590.0;;;-0.3;92.1
28456;BME280;15682;56.742;38.866;2023-03-14T06:55:12;98590.0;;;-0.3;92.1
28456;BME280;15682;56.742;38.866;2023-03-14T06:57:12;98560.0;;;-0.3;91.9
28456;BME280;15682;56.742;38.866;2023-03-14T06:59:12;98560.0;;;-0.3;91.9
28456;BME280;15682;56.742;38.866;2023-03-14T07:01:20;98560.0;;;-0.3;91.9
28456;BME280;15682;56.742;38.866;2023-03-14T07:03:13;98580.0;;;-0.3;92.0
28456;BME280;15682;56.742;38.866;2023-03-14T07:05:11;98560.0;;;-0.2;92.0
28456;BME280;15682;56.742;38.866;2023-03-14T07:07:11;98580.0;;;-0.2;92.0
28456;BME280;15682;56.742;38.866;2023-03-14T07:09:12;98580.0;;;-0.0;92.0
28456;BME280;15682;56.742;38.866;2023-03-14T07:11:11;98580.0;;;0.1;91.3
28456;BME280;15682;56.742;38.866;2023-03-14T07:13:11;98580.0;;;0.1;91.0
28456;BME280;15682;56.742;38.866;2023-03-14T07:15:11;98580.0;;;0.1;91.0
28456;BME280;15682;56.742;38.866;2023-03-14T07:17:11;98580.0;;;0.1;92.1
28456;BME280;15682;56.742;38.866;2023-03-14T07:19:11;98590.0;;;0.1;92.1
28456;BME280;15682;56.742;38.866;2023-03-14T07:21:10;98590.0;;;0.1;92.1
28456;BME280;15682;56.742;38.866;2023-03-14T07:23:10;98590.0;;;0.1;91.8
28456;BME280;15682;56.742;38.866;2023-03-14T07:25:10;98590.0;;;0.1;91.8
28456;BME280;15682;56.742;38.866;2023-03-14T07:27:10;98590.0;;;0.2;91.8
28456;BME280;15682;56.742;38.866;2023-03-14T07:29:10;98590.0;;;0.4;91.8
28456;BME280;15682;56.742;38.866;2023-03-14T07:31:10;98590.0;;;0.4;91.8
28456;BME280;15682;56.742;38.866;2023-03-14T07:33:10;98590.0;;;0.4;91.8
28456;BME280;15682;56.742;38.866;2023-03-14T07:35:09;98590.0;;;0.4;91.5
28456;BME280;15682;56.742;38.866;2023-03-14T07:37:09;98600.0;;;0.4;91.5
28456;BME280;15682;56.742;38.866;2023-03-14T07:39:10;98600.0;;;0.4;91.5
28456;BME280;15682;56.742;38.866;2023-03-14T07:41:09;98600.0;;;0.4;91.5
28456;BME280;15682;56.742;38.866;2023-03-14T07:43:09;98610.0;;;0.4;91.6
28456;BME280;15682;56.742;38.866;2023-03-14T07:45:10;98610.0;;;0.5;91.6
28456;BME280;15682;56.742;38.866;2023-03-14T07:47:09;98610.0;;;0.5;91.6
28456;BME280;15682;56.742;38.866;2023-03-14T07:49:09;98610.0;;;0.5;91.6
28456;BME280;15682;56.742;38.866;2023-03-14T07:51:09;98590.0;;;0.6;91.6
28456;BME280;15682;56.742;38.866;2023-03-14T07:53:09;98590.0;;;0.7;90.9
28456;BME280;15682;56.742;38.866;2023-03-14T07:55:09;98590.0;;;0.9;90.3
28456;BME280;15682;56.742;38.866;2023-03-14T07:57:08;98590.0;;;0.9;90.3
28456;BME280;15682;56.742;38.866;2023-03-14T07:59:08;98590.0;;;0.9;90.3
28456;BME280;15682;56.742;38.866;2023-03-14T08:01:08;98590.0;;;1.0;89.7
28456;BME280;15682;56.742;38.866;2023-03-14T08:03:08;98590.0;;;1.1;90.1
28456;BME280;15682;56.742;38.866;2023-03-14T08:05:09;98580.0;;;1.0;90.1
28456;BME280;15682;56.742;38.866;2023-03-14T08:07:08;98580.0;;;1.0;90.1
28456;BME280;15682;56.742;38.866;2023-03-14T08:09:08;98580.0;;;1.0;90.1
28456;BME280;15682;56.742;38.866;2023-03-14T08:11:08;98570.0;;;1.0;90.1
28456;BME280;15682;56.742;38.866;2023-03-14T08:13:09;98570.0;;;1.0;89.7
28456;BME280;15682;56.742;38.866;2023-03-14T08:15:08;98570.0;;;1.1;89.7
28456;BME280;15682;56.742;38.866;2023-03-14T08:17:07;98580.0;;;1.2;89.7
28456;BME280;15682;56.742;38.866;2023-03-14T08:19:07;98580.0;;;1.2;89.7
28456;BME280;15682;56.742;38.866;2023-03-14T08:21:07;98580.0;;;1.3;89.2
28456;BME280;15682;56.742;38.866;2023-03-14T08:23:07;98580.0;;;1.3;89.1
28456;BME280;15682;56.742;38.866;2023-03-14T08:25:07;98580.0;;;1.3;89.1
28456;BME280;15682;56.742;38.866;2023-03-14T08:27:07;98590.0;;;1.3;89.1
28456;BME280;15682;56.742;38.866;2023-03-14T08:29:07;98590.0;;;1.3;89.1
28456;BME280;15682;56.742;38.866;2023-03-14T08:31:07;98590.0;;;1.4;89.1
28456;BME280;15682;56.742;38.866;2023-03-14T08:33:06;98580.0;;;1.6;89.3
28456;BME280;15682;56.742;38.866;2023-03-14T08:35:08;98580.0;;;1.6;88.4
28456;BME280;15682;56.742;38.866;2023-03-14T08:37:06;98580.0;;;1.6;88.4
28456;BME280;15682;56.742;38.866;2023-03-14T08:39:07;98580.0;;;1.6;88.4
28456;BME280;15682;56.742;38.866;2023-03-14T08:41:06;98580.0;;;1.7;88.4
28456;BME280;15682;56.742;38.866;2023-03-14T08:43:06;98560.0;;;1.7;88.4
28456;BME280;15682;56.742;38.866;2023-03-14T08:45:07;98560.0;;;1.7;88.4
28456;BME280;15682;56.742;38.866;2023-03-14T08:47:06;98560.0;;;1.7;88.4
28456;BME280;15682;56.742;38.866;2023-03-14T08:49:06;98560.0;;;1.7;88.4
28456;BME280;15682;56.742;38.866;2023-03-14T08:51:06;98560.0;;;1.9;87.7
28456;BME280;15682;56.742;38.866;2023-03-14T08:53:06;98560.0;;;1.9;87.9
28456;BME280;15682;56.742;38.866;2023-03-14T08:55:07;98560.0;;;2.0;87.9
28456;BME280;15682;56.742;38.866;2023-03-14T08:57:05;98570.0;;;2.0;87.9
28456;BME280;15682;56.742;38.866;2023-03-14T08:59:05;98580.0;;;2.1;87.9
28456;BME280;15682;56.742;38.866;2023-03-14T09:01:07;98580.0;;;2.1;87.9
28456;BME280;15682;56.742;38.866;2023-03-14T09:03:05;98570.0;;;2.3;87.0
28456;BME280;15682;56.742;38.866;2023-03-14T09:05:06;98570.0;;;2.3;87.0
28456;BME280;15682;56.742;38.866;2023-03-14T09:07:05;98570.0;;;2.3;87.0
28456;BME280;15682;56.742;38.866;2023-03-14T09:09:05;98570.0;;;2.4;86.5
28456;BME280;15682;56.742;38.866;2023-03-14T09:11:07;98570.0;;;2.6;86.5
28456;BME280;15682;56.742;38.866;2023-03-14T09:13:05;98570.0;;;2.6;85.9
28456;BME280;15682;56.742;38.866;2023-03-14T09:15:06;98580.0;;;2.5;86.4
28456;BME280;15682;56.742;38.866;2023-03-14T09:17:05;98580.0;;;2.5;86.4
28456;BME280;15682;56.742;38.866;2023-03-14T09:19:05;98580.0;;;2.5;86.4
28456;BME280;15682;56.742;38.866;2023-03-14T09:21:05;98580.0;;;2.4;86.4
28456;BME280;15682;56.742;38.866;2023-03-14T09:23:04;98580.0;;;2.4;86.6
28456;BME280;15682;56.742;38.866;2023-03-14T09:25:05;98580.0;;;2.4;87.0
28456;BME280;15682;56.742;38.866;2023-03-14T09:27:04;98580.0;;;2.4;87.0
28456;BME280;15682;56.742;38.866;2023-03-14T09:29:04;98580.0;;;2.4;87.0
28456;BME280;15682;56.742;38.866;2023-03-14T09:31:06;98580.0;;;2.6;87.0
28456;BME280;15682;56.742;38.866;2023-03-14T09:33:04;98580.0;;;2.6;86.2
28456;BME280;15682;56.742;38.866;2023-03-14T09:35:05;98570.0;;;2.6;86.2
28456;BME280;15682;56.742;38.866;2023-03-14T09:37:04;98570.0;;;2.6;86.2
28456;BME280;15682;56.742;38.866;2023-03-14T09:39:04;98570.0;;;2.7;86.2
28456;BME280;15682;56.742;38.866;2023-03-14T09:41:13;98570.0;;;2.7;86.2
28456;BME280;15682;56.742;38.866;2023-03-14T09:43:04;98570.0;;;2.7;86.3
28456;BME280;15682;56.742;38.866;2023-03-14T09:45:06;98570.0;;;2.7;86.3
28456;BME280;15682;56.742;38.866;2023-03-14T09:47:06;98570.0;;;2.9;86.3
28456;BME280;15682;56.742;38.866;2023-03-14T09:49:10;98570.0;;;2.9;86.3
28456;BME280;15682;56.742;38.866;2023-03-14T09:51:07;98570.0;;;2.9;85.6
28456;BME280;15682;56.742;38.866;2023-03-14T09:53:08;98570.0;;;2.9;85.8
28456;BME280;15682;56.742;38.866;2023-03-14T09:55:07;98570.0;;;3.1;85.4
28456;BME280;15682;56.742;38.866;2023-03-14T09:57:08;98570.0;;;3.3;85.4
28456;BME280;15682;56.742;38.866;2023-03-14T09:59:06;98570.0;;;3.3;85.4
28456;BME280;15682;56.742;38.866;2023-03-14T10:01:04;98570.0;;;3.3;85.4
28456;BME280;15682;56.742;38.866;2023-03-14T10:03:25;98570.0;;;3.2;84.9
28456;BME280;15682;56.742;38.866;2023-03-14T10:05:08;98570.0;;;3.2;84.9
28456;BME280;15682;56.742;38.866;2023-03-14T10:07:03;98570.0;;;3.2;84.9
28456;BME280;15682;56.742;38.866;2023-03-14T10:09:04;98570.0;;;3.4;84.9
28456;BME280;15682;56.742;38.866;2023-03-14T10:11:04;98560.0;;;3.6;84.9
28456;BME280;15682;56.742;38.866;2023-03-14T10:13:13;98560.0;;;3.6;84.1
28456;BME280;15682;56.742;38.866;2023-03-14T10:15:06;98560.0;;;3.6;84.1
28456;BME280;15682;56.742;38.866;2023-03-14T10:17:06;98560.0;;;3.6;84.1
28456;BME280;15682;56.742;38.866;2023-03-14T10:19:05;98550.0;;;3.6;84.9
28456;BME280;15682;56.742;38.866;2023-03-14T10:21:07;98550.0;;;3.5;84.1
28456;BME280;15682;56.742;38.866;2023-03-14T10:23:05;98550.0;;;3.5;84.4
28456;BME280;15682;56.742;38.866;2023-03-14T10:25:05;98550.0;;;3.5;84.4
28456;BME280;15682;56.742;38.866;2023-03-14T10:27:05;98550.0;;;3.7;84.3
28456;BME280;15682;56.742;38.866;2023-03-14T10:29:08;98560.0;;;3.7;85.2
28456;BME280;15682;56.742;38.866;2023-03-14T10:31:04;98560.0;;;3.7;84.6
28456;BME280;15682;56.742;38.866;2023-03-14T10:33:09;98560.0;;;3.7;84.1
28456;BME280;15682;56.742;38.866;2023-03-14T10:35:08;98560.0;;;3.7;84.1
28456;BME280;15682;56.742;38.866;2023-03-14T10:37:07;98560.0;;;3.7;84.2
28456;BME280;15682;56.742;38.866;2023-03-14T10:41:15;98550.0;;;3.9;84.0
28456;BME280;15682;56.742;38.866;2023-03-14T10:43:05;98550.0;;;3.7;84.3
28456;BME280;15682;56.742;38.866;2023-03-14T10:45:06;98550.0;;;3.7;85.1
28456;BME280;15682;56.742;38.866;2023-03-14T10:47:04;98550.0;;;3.7;85.1
28456;BME280;15682;56.742;38.866;2023-03-14T10:49:05;98550.0;;;3.7;84.5
28456;BME280;15682;56.742;38.866;2023-03-14T10:51:06;98550.0;;;3.7;84.5
28456;BME280;15682;56.742;38.866;2023-03-14T10:53:03;98550.0;;;3.7;84.8
28456;BME280;15682;56.742;38.866;2023-03-14T10:55:10;98550.0;;;3.8;84.5
28456;BME280;15682;56.742;38.866;2023-03-14T10:57:04;98550.0;;;3.8;84.5
28456;BME280;15682;56.742;38.866;2023-03-14T10:59:06;98550.0;;;3.8;85.3